Time;durP1;ratioP1;P1;durP2;ratioP2;P2;SDS_P1;SDS_P2;PMS_P1;PMS_P2;Temp;Humidity;BMP_temperature;BMP_pressure;BME280_temperature;BME280_humidity;BME280_pressure;Samples;Min_cycle;Max_cycle;Signal;HPM_P1;HPM_P2
2022/09/28 00:01:13;;;;;;;;;;;13.80;80.20;;;12.86;100.00;62537.16;4203738;34;19910;-86
2022/09/28 00:03:41;;;;;;;;;;;13.80;80.20;;;-151.14;100.00;62537.16;4200830;33;20244;-86
2022/09/28 00:06:12;;;;;;;;;;;13.80;81.00;;;-151.14;100.00;62537.16;4231600;33;19910;-86
2022/09/28 00:08:40;;;;;;;;;;;13.80;80.20;;;-151.14;100.00;62537.16;4207692;33;20222;-86
2022/09/28 00:11:12;;;;;;;;;;;13.80;80.20;;;12.88;100.00;62537.16;4231253;33;19909;-86
2022/09/28 00:13:41;;;;;;;;;;;13.80;80.30;;;-151.14;100.00;62537.16;4231242;33;20030;-86
2022/09/28 00:16:12;;;;;;;;;;;13.80;80.30;;;-151.14;100.00;62537.16;4231409;33;20245;-86
2022/09/28 00:18:41;;;;;;;;;;;13.80;80.30;;;12.86;100.00;62537.16;4207573;33;19902;-86
2022/09/28 00:21:11;;;;;;;;;;;13.80;80.20;;;-151.14;100.00;62537.16;4208238;33;19902;-86
2022/09/28 00:24:11;;;;;;;;;;;13.80;80.20;;;-151.14;100.00;62537.16;4230855;33;20233;-86
2022/09/28 00:26:31;;;;;;;;;;;13.80;80.30;;;-151.14;100.00;62537.16;4208062;33;19903;-86
2022/09/28 00:29:01;;;;;;;;;;;13.80;80.30;;;-151.14;100.00;62537.16;4230670;33;20001;-86
2022/09/28 00:31:32;;;;;;;;;;;13.80;80.30;;;-151.14;100.00;62537.16;4231206;33;19911;-86
2022/09/28 00:34:01;;;;;;;;;;;13.80;80.20;;;-151.14;100.00;62537.16;4230852;33;20213;-87
2022/09/28 00:36:30;;;;;;;;;;;13.80;80.20;;;-151.14;100.00;62537.16;4206957;33;19910;-87
2022/09/28 00:38:59;;;;;;;;;;;13.80;80.20;;;-151.14;100.00;62537.16;4229618;33;19902;-86
2022/09/28 00:41:28;;;;;;;;;;;13.80;80.20;;;12.86;100.00;82889.34;4230173;33;20133;-87
2022/09/28 00:44:33;;;;;;;;;;;13.80;80.20;;;12.86;100.00;62537.16;4206792;33;19998;-86
2022/09/28 00:47:03;;;;;;;;;;;13.80;80.10;;;12.84;100.00;62537.16;4230219;33;19902;-86
2022/09/28 00:49:37;;;;;;;;;;;13.80;80.20;;;-151.14;100.00;62537.16;4229797;33;20103;-87
2022/09/28 00:52:05;;;;;;;;;;;13.80;80.30;;;12.85;100.00;62537.16;4230237;33;19903;-86
2022/09/28 00:54:34;;;;;;;;;;;13.80;80.20;;;-151.14;100.00;62537.16;4229965;33;19991;-86
2022/09/28 00:57:02;;;;;;;;;;;13.80;80.20;;;-151.14;100.00;62537.16;4231131;33;19924;-86
2022/09/28 00:59:33;;;;;;;;;;;13.80;80.20;;;12.85;100.00;62537.16;4206372;33;20245;-86
2022/09/28 01:02:01;;;;;;;;;;;13.80;80.10;;;-151.14;100.00;62537.16;4206751;33;20007;-85
2022/09/28 01:04:30;;;;;;;;;;;13.80;80.20;;;-151.14;100.00;62537.16;4206597;33;19925;-86
2022/09/28 01:06:59;;;;;;;;;;;13.80;80.40;;;-151.14;100.00;62537.16;4229807;33;19902;-86
2022/09/28 01:09:28;;;;;;;;;;;13.70;80.20;;;-151.14;100.00;62537.16;4229258;33;19903;-87
2022/09/28 01:11:56;;;;;;;;;;;13.80;80.20;;;12.84;100.00;62537.16;4231459;33;19903;-87
2022/09/28 01:14:25;;;;;;;;;;;13.80;80.20;;;-151.14;100.00;62537.16;4232497;33;20325;-87
2022/09/28 01:17:02;;;;;;;;;;;13.80;80.20;;;-151.14;100.00;62537.16;4232684;33;20215;-86
2022/09/28 01:20:18;;;;;;;;;;;13.80;80.20;;;12.95;100.00;62537.16;4232056;33;19922;-86
2022/09/28 01:23:26;;;;;;;;;;;13.80;80.20;;;-151.14;100.00;62537.16;4173521;33;19998;-86
2022/09/28 01:25:57;;;;;;;;;;;13.80;81.10;;;-151.14;100.00;62537.16;4156904;34;19911;-86
2022/09/28 01:28:28;;;;;;;;;;;13.80;80.30;;;12.83;100.00;82886.91;4204324;34;20134;-86
2022/09/28 01:31:04;;;;;;;;;;;13.80;80.10;;;-151.14;100.00;62537.16;4204481;34;19904;-86
2022/09/28 01:33:37;;;;;;;;;;;13.70;80.20;;;-151.14;100.00;62537.16;4150271;33;1873146;-86
2022/09/28 01:36:10;;;;;;;;;;;13.80;80.10;;;-151.14;100.00;62537.16;4205251;34;19984;-86
2022/09/28 01:38:42;;;;;;;;;;;13.70;80.10;;;-151.14;100.00;62537.16;4204548;34;19999;-86
2022/09/28 01:41:11;;;;;;;;;;;13.80;80.10;;;12.82;100.00;62537.16;4228425;33;19910;-87
2022/09/28 01:43:43;;;;;;;;;;;13.70;80.10;;;-151.14;100.00;62537.16;4204989;34;19903;-86
2022/09/28 01:46:13;;;;;;;;;;;13.70;80.10;;;12.82;100.00;62537.16;4205128;34;19903;-86
2022/09/28 01:48:45;;;;;;;;;;;13.70;80.20;;;12.82;100.00;62537.16;4204517;34;19910;-86
2022/09/28 01:51:19;;;;;;;;;;;13.70;80.10;;;-151.14;100.00;62537.16;4204916;34;19923;-86
2022/09/28 01:53:50;;;;;;;;;;;13.70;80.10;;;-151.14;100.00;62537.16;4228169;33;19999;-86
2022/09/28 01:56:24;;;;;;;;;;;13.70;80.10;;;12.81;100.00;62537.16;4204924;34;19903;-86
2022/09/28 01:58:56;;;;;;;;;;;13.70;80.00;;;-151.14;100.00;62537.16;4204576;34;19998;-86
2022/09/28 02:01:29;;;;;;;;;;;13.70;79.80;;;-151.14;100.00;62537.16;4204694;34;20004;-86
2022/09/28 02:04:01;;;;;;;;;;;13.70;79.90;;;-151.14;100.00;62537.16;4204679;34;20194;-86
2022/09/28 02:06:32;;;;;;;;;;;13.70;79.90;;;-151.14;100.00;62537.16;4204834;34;19952;-86
2022/09/28 02:09:04;;;;;;;;;;;13.70;79.90;;;-151.14;100.00;62537.16;4204245;34;19999;-86
2022/09/28 02:11:45;;;;;;;;;;;13.70;80.10;;;-151.14;100.00;62537.16;4204625;34;19904;-86
2022/09/28 02:14:15;;;;;;;;;;;13.70;79.90;;;-151.14;100.00;62537.16;4204891;33;20234;-86
2022/09/28 02:16:47;;;;;;;;;;;13.70;79.90;;;14.11;100.00;62537.16;4228018;33;19910;-86
2022/09/28 02:19:18;;;;;;;;;;;13.70;79.90;;;-151.14;100.00;62537.16;4204243;34;20248;-86
2022/09/28 02:21:54;;;;;;;;;;;13.70;79.90;;;-151.14;100.00;62537.16;4181380;34;20230;-86
2022/09/28 02:24:25;;;;;;;;;;;13.70;79.90;;;-151.14;100.00;62537.16;4204640;33;20027;-86
2022/09/28 02:26:53;;;;;;;;;;;13.70;80.00;;;-151.14;100.00;62537.16;4227777;33;19903;-87
2022/09/28 02:29:24;;;;;;;;;;;13.70;80.10;;;-151.14;100.00;62537.16;4227085;33;19926;-86
2022/09/28 02:31:52;;;;;;;;;;;13.70;80.00;;;-151.14;100.00;62537.16;4180577;34;19910;-87
2022/09/28 02:34:21;;;;;;;;;;;13.70;80.00;;;-151.14;100.00;62537.16;4224805;28;20168;-81
2022/09/28 02:36:49;;;;;;;;;;;13.70;80.00;;;-151.14;100.00;62537.16;4209182;33;19903;-82
2022/09/28 02:39:19;;;;;;;;;;;13.70;80.00;;;-151.14;100.00;62537.16;4231830;33;19949;-82
2022/09/28 02:41:57;;;;;;;;;;;13.70;79.90;;;-151.14;100.00;62537.16;4232365;33;19902;-82
2022/09/28 02:45:02;;;;;;;;;;;13.70;79.90;;;-151.14;100.00;62537.16;4232473;33;19983;-82
2022/09/28 02:47:43;;;;;;;;;;;13.70;80.00;;;-151.14;100.00;62537.16;4205392;33;19903;-82
2022/09/28 02:50:18;;;;;;;;;;;13.70;79.80;;;-151.14;100.00;62537.16;4209122;33;19902;-82
2022/09/28 02:53:09;;;;;;;;;;;13.70;79.80;;;-151.14;100.00;62537.16;4208935;33;20227;-82
2022/09/28 02:55:47;;;;;;;;;;;13.70;79.90;;;-151.14;100.00;62537.16;4208915;33;20218;-82
2022/09/28 02:58:22;;;;;;;;;;;13.70;79.90;;;-151.14;100.00;62537.16;4209261;33;19902;-82
2022/09/28 03:00:56;;;;;;;;;;;13.70;80.00;;;-151.14;100.00;62537.16;4208930;33;19903;-82
2022/09/28 03:03:31;;;;;;;;;;;13.70;80.00;;;-151.14;100.00;62537.16;4233155;33;20006;-82
2022/09/28 03:06:02;;;;;;;;;;;13.70;79.90;;;-151.14;100.00;62537.16;4208963;33;20217;-82
2022/09/28 03:08:38;;;;;;;;;;;13.70;79.70;;;-151.14;100.00;62537.16;4231591;33;20095;-82
2022/09/28 03:11:12;;;;;;;;;;;13.70;79.70;;;-151.14;100.00;62537.16;4231882;33;20129;-82
2022/09/28 03:13:42;;;;;;;;;;;13.70;79.80;;;-151.14;100.00;62537.16;4208840;33;19947;-82
2022/09/28 03:16:13;;;;;;;;;;;13.70;79.90;;;-151.14;100.00;62537.16;4208672;33;19903;-82
2022/09/28 03:18:43;;;;;;;;;;;13.70;79.80;;;-151.14;100.00;62537.16;4208203;33;19902;-82
2022/09/28 03:21:12;;;;;;;;;;;13.70;79.80;;;-151.14;100.00;62537.16;4197002;34;20134;-82
2022/09/28 03:23:41;;;;;;;;;;;13.70;79.90;;;-151.14;100.00;62537.16;4203898;34;20018;-82
2022/09/28 03:26:10;;;;;;;;;;;13.70;79.80;;;-151.14;100.00;62537.16;4227153;33;20253;-82
2022/09/28 03:28:39;;;;;;;;;;;13.70;79.90;;;-151.14;100.00;62537.16;4203575;34;19903;-82
2022/09/28 03:31:11;;;;;;;;;;;13.70;79.70;;;-151.14;100.00;62537.16;4203886;34;20003;-82
2022/09/28 03:33:40;;;;;;;;;;;13.70;79.70;;;-151.14;100.00;62537.16;4203364;33;19910;-82
2022/09/28 03:36:09;;;;;;;;;;;13.70;79.40;;;-151.14;100.00;62537.16;4180477;34;19982;-82
2022/09/28 03:38:38;;;;;;;;;;;13.70;79.50;;;-151.14;100.00;62537.16;4180346;34;19949;-82
2022/09/28 03:41:08;;;;;;;;;;;13.70;79.50;;;-151.14;100.00;62537.16;4203835;34;19903;-82
2022/09/28 03:43:39;;;;;;;;;;;13.70;79.50;;;-151.14;100.00;62537.16;4203761;34;19903;-81
2022/09/28 03:46:07;;;;;;;;;;;13.70;79.60;;;-151.14;100.00;62537.16;4180920;34;19910;-82
2022/09/28 03:48:42;;;;;;;;;;;13.70;79.40;;;-151.14;100.00;62537.16;4180264;34;19910;-82
2022/09/28 03:51:12;;;;;;;;;;;13.70;79.40;;;-151.14;100.00;62537.16;4203854;34;19903;-82
2022/09/28 03:53:41;;;;;;;;;;;13.70;79.60;;;12.73;100.00;62537.16;4180768;34;19914;-82
2022/09/28 03:56:12;;;;;;;;;;;13.70;79.40;;;-151.14;100.00;62537.16;4203738;34;19903;-82
2022/09/28 03:58:41;;;;;;;;;;;13.70;79.70;;;-151.14;100.00;62537.16;4179962;34;19903;-82
2022/09/28 04:01:15;;;;;;;;;;;13.70;79.60;;;-151.14;100.00;62537.16;4180654;34;19910;-81
2022/09/28 04:03:45;;;;;;;;;;;13.70;79.70;;;-151.14;100.00;62537.16;4203334;34;20240;-82
2022/09/28 04:06:14;;;;;;;;;;;13.70;79.60;;;-151.14;100.00;62537.16;4180474;34;19914;-82
2022/09/28 04:08:43;;;;;;;;;;;13.70;79.60;;;-151.14;100.00;62537.16;4179897;34;20237;-82
2022/09/28 04:11:11;;;;;;;;;;;13.70;79.50;;;-151.14;100.00;62537.16;4203552;34;19903;-82
2022/09/28 04:13:40;;;;;;;;;;;13.70;79.30;;;-151.14;100.00;62537.16;4180403;34;19984;-82
2022/09/28 04:16:11;;;;;;;;;;;13.70;79.40;;;-151.14;100.00;62537.16;4180475;34;19903;-82
2022/09/28 04:18:43;;;;;;;;;;;13.70;79.30;;;-151.14;100.00;62537.16;4179922;34;20012;-82
2022/09/28 04:21:37;;;;;;;;;;;13.70;79.20;;;-151.14;100.00;62537.16;4203000;34;20011;-81
2022/09/28 04:24:11;;;;;;;;;;;13.70;79.40;;;-151.14;100.00;62537.16;4180310;34;19904;-81
2022/09/28 04:26:39;;;;;;;;;;;13.70;79.30;;;-151.14;100.00;62537.16;4180097;34;19911;-82
2022/09/28 04:29:17;;;;;;;;;;;13.70;79.40;;;-151.14;100.00;62537.16;4179834;34;19910;-82
2022/09/28 04:31:52;;;;;;;;;;;13.70;79.60;;;-151.14;100.00;62537.16;4203204;34;20004;-81
2022/09/28 04:34:23;;;;;;;;;;;13.70;79.30;;;12.82;100.00;62537.16;4180088;34;19904;-82
2022/09/28 04:36:53;;;;;;;;;;;13.70;79.20;;;-151.14;100.00;62537.16;4203303;34;20122;-81
2022/09/28 04:39:22;;;;;;;;;;;13.70;79.20;;;-151.14;100.00;62537.16;4179715;34;19910;-82
2022/09/28 04:41:55;;;;;;;;;;;13.80;79.30;;;-151.14;100.00;62537.16;4180179;34;19922;-82
2022/09/28 04:44:24;;;;;;;;;;;14.00;78.90;;;-151.14;100.00;62537.16;4203078;33;20155;-81
2022/09/28 04:46:58;;;;;;;;;;;14.30;77.90;;;-151.14;100.00;62537.16;4226233;33;20229;-81
2022/09/28 04:49:29;;;;;;;;;;;14.60;76.80;;;-151.14;100.00;62537.16;4202671;34;19904;-82
2022/09/28 04:52:09;;;;;;;;;;;14.80;75.90;;;-151.14;100.00;62537.16;4203122;34;19992;-81
2022/09/28 04:54:39;;;;;;;;;;;15.00;75.10;;;-151.14;100.00;62537.16;4203036;34;19903;-82
2022/09/28 04:57:08;;;;;;;;;;;15.00;74.40;;;-151.14;100.00;62537.16;4202999;34;19903;-82
2022/09/28 04:59:36;;;;;;;;;;;15.00;74.40;;;-151.14;100.00;62537.16;4202593;34;20114;-81
2022/09/28 05:02:05;;;;;;;;;;;15.00;75.10;;;-151.14;100.00;62537.16;4179736;34;20004;-82
2022/09/28 05:04:54;;;;;;;;;;;15.00;75.20;;;-151.14;100.00;62537.16;4202914;34;19904;-82
2022/09/28 05:07:37;;;;;;;;;;;15.20;74.70;;;-151.14;100.00;62537.16;4181931;34;20044;-82
2022/09/28 05:10:08;;;;;;;;;;;15.30;74.10;;;-151.14;100.00;62537.16;4179830;34;20007;-82
2022/09/28 05:12:39;;;;;;;;;;;15.40;73.50;;;14.60;100.00;62537.16;4179703;34;19999;-82
2022/09/28 05:15:08;;;;;;;;;;;15.50;73.30;;;14.60;100.00;62537.16;4179908;34;20008;-82
2022/09/28 05:17:36;;;;;;;;;;;15.70;72.90;;;14.60;100.00;62537.16;4179202;34;20233;-82
2022/09/28 05:20:25;;;;;;;;;;;15.90;72.10;;;14.60;100.00;83241.59;4197654;34;19903;-82
2022/09/28 05:22:55;;;;;;;;;;;16.30;71.10;;;15.39;100.00;62537.16;4179765;34;19910;-82
2022/09/28 05:25:23;;;;;;;;;;;16.70;69.90;;;-151.14;100.00;62537.16;4179786;34;19980;-82
2022/09/28 05:28:05;;;;;;;;;;;17.00;68.10;;;-151.14;100.00;62537.16;4179315;34;20219;-82
2022/09/28 05:30:47;;;;;;;;;;;17.30;67.60;;;-151.14;100.00;62537.16;4179824;34;19903;-82
2022/09/28 05:33:42;;;;;;;;;;;17.30;66.10;;;-151.14;100.00;62537.16;4202848;34;19904;-81
2022/09/28 05:36:13;;;;;;;;;;;17.50;66.10;;;-151.14;100.00;62537.16;4202589;34;19903;-82
2022/09/28 05:38:45;;;;;;;;;;;17.60;65.40;;;-151.14;100.00;62537.16;4179120;34;20329;-82
2022/09/28 05:41:14;;;;;;;;;;;18.00;64.70;;;-151.14;100.00;62537.16;4179664;34;19990;-82
2022/09/28 05:43:43;;;;;;;;;;;18.40;63.30;;;18.08;100.00;62537.16;4179348;34;20006;-82
2022/09/28 05:46:11;;;;;;;;;;;18.60;62.00;;;187.61;100.00;62537.16;4179412;34;20006;-82
2022/09/28 05:48:42;;;;;;;;;;;18.80;60.70;;;-151.14;100.00;62537.16;4179545;34;19903;-82
2022/09/28 05:51:11;;;;;;;;;;;18.70;60.20;;;187.61;100.00;62537.16;4179632;34;19910;-82
2022/09/28 05:53:39;;;;;;;;;;;18.60;60.00;;;-151.14;100.00;62537.16;4179474;34;20000;-82
2022/09/28 05:56:09;;;;;;;;;;;18.30;60.80;;;-151.14;100.00;62537.16;4179538;34;19903;-82
2022/09/28 05:58:42;;;;;;;;;;;18.00;61.70;;;-151.14;100.00;62537.16;4186590;34;19910;-82
2022/09/28 06:01:11;;;;;;;;;;;17.70;63.00;;;102.80;100.00;62537.16;4181680;34;19925;-82
2022/09/28 06:03:40;;;;;;;;;;;17.50;64.30;;;-151.14;100.00;62537.16;4181831;34;20223;-82
2022/09/28 06:06:09;;;;;;;;;;;17.20;65.20;;;-151.14;100.00;62537.16;4181894;34;19910;-82
2022/09/28 06:08:41;;;;;;;;;;;17.00;66.20;;;-151.14;100.00;62537.16;4184670;34;19903;-82
2022/09/28 06:11:31;;;;;;;;;;;16.80;67.10;;;-151.14;100.00;62537.16;4207743;34;20106;-82
2022/09/28 06:14:02;;;;;;;;;;;16.50;67.90;;;15.26;100.00;62537.16;4204543;34;20242;-81
2022/09/28 06:16:33;;;;;;;;;;;16.40;68.70;;;-151.14;100.00;62537.16;4181905;34;19903;-82
2022/09/28 06:19:02;;;;;;;;;;;16.30;69.30;;;-151.14;100.00;62537.16;4204151;34;20121;-82
2022/09/28 06:21:57;;;;;;;;;;;16.10;69.80;;;-151.14;100.00;62537.16;4204750;34;20004;-82
2022/09/28 06:24:26;;;;;;;;;;;16.00;70.40;;;-151.14;100.00;62537.16;4204582;34;20232;-82
2022/09/28 06:26:56;;;;;;;;;;;15.90;70.80;;;-151.14;100.00;62537.16;4181640;34;20230;-81
2022/09/28 06:29:25;;;;;;;;;;;15.80;71.10;;;-151.14;100.00;62537.16;4181134;34;19903;-82
2022/09/28 06:31:54;;;;;;;;;;;15.80;71.50;;;-151.14;100.00;62537.16;4181632;34;20214;-82
2022/09/28 06:34:23;;;;;;;;;;;15.70;71.70;;;-151.14;100.00;62537.16;4221813;33;19911;-82
2022/09/28 06:36:52;;;;;;;;;;;15.70;72.00;;;-151.14;100.00;62537.16;4232541;33;19915;-82
2022/09/28 06:39:21;;;;;;;;;;;15.70;72.10;;;-151.14;100.00;62537.16;4250356;33;19916;-82
2022/09/28 06:41:50;;;;;;;;;;;15.60;72.20;;;-151.14;100.00;62537.16;4209221;33;20009;-82
2022/09/28 06:44:23;;;;;;;;;;;15.60;72.40;;;-151.14;100.00;62537.16;4209089;33;20118;-82
2022/09/28 06:47:11;;;;;;;;;;;15.60;72.60;;;14.58;100.00;62537.16;4232327;33;19903;-82
2022/09/28 06:50:12;;;;;;;;;;;15.60;72.80;;;14.58;100.00;83124.78;4232604;33;19903;-82
2022/09/28 06:52:59;;;;;;;;;;;15.60;72.90;;;-151.14;100.00;62537.16;4232350;33;20294;-82
2022/09/28 06:55:48;;;;;;;;;;;15.60;73.00;;;18.08;100.00;62537.16;4231991;33;19903;-81
2022/09/28 06:58:18;;;;;;;;;;;15.50;73.00;;;14.54;100.00;62537.16;4231688;33;20276;-82
2022/09/28 07:00:49;;;;;;;;;;;15.50;73.00;;;14.50;100.00;62537.16;4232200;33;20094;-82
2022/09/28 07:03:20;;;;;;;;;;;15.50;73.30;;;-151.14;100.00;62537.16;4209046;33;19902;-82
2022/09/28 07:06:25;;;;;;;;;;;15.50;73.50;;;-151.14;100.00;62537.16;4236069;33;19902;-82
2022/09/28 07:09:12;;;;;;;;;;;15.40;73.60;;;14.50;100.00;83113.47;4233484;33;19903;-82
2022/09/28 07:12:04;;;;;;;;;;;15.40;73.80;;;-151.14;100.00;62537.16;4232316;33;19999;-82
2022/09/28 07:14:43;;;;;;;;;;;15.40;73.90;;;-151.14;100.00;62537.16;4208630;33;19903;-82
2022/09/28 07:17:13;;;;;;;;;;;15.40;73.80;;;14.50;100.00;62537.16;4208699;33;20133;-82
2022/09/28 07:19:43;;;;;;;;;;;15.50;74.00;;;14.50;100.00;83114.16;4202075;34;19910;-82
2022/09/28 07:22:13;;;;;;;;;;;15.40;73.70;;;14.53;100.00;83118.41;4180980;34;20212;-81
2022/09/28 07:24:43;;;;;;;;;;;15.40;73.70;;;-151.14;100.00;62537.16;4203738;34;19918;-82
2022/09/28 07:27:30;;;;;;;;;;;15.40;73.60;;;-151.14;100.00;62537.16;4203503;34;19904;-81
2022/09/28 07:30:18;;;;;;;;;;;15.40;73.80;;;14.48;100.00;62537.16;4191511;33;19909;-82
2022/09/28 07:33:30;;;;;;;;;;;15.40;73.80;;;14.48;100.00;62537.16;4213917;33;19956;-81
2022/09/28 07:36:15;;;;;;;;;;;15.40;73.80;;;14.55;100.00;83120.53;4187946;34;20134;-81
2022/09/28 07:38:43;;;;;;;;;;;15.40;73.70;;;14.56;100.00;83122.69;4180371;34;19926;-81
2022/09/28 07:41:11;;;;;;;;;;;15.50;73.70;;;14.56;100.00;62537.16;4203687;34;20233;-82
2022/09/28 07:43:44;;;;;;;;;;;15.50;73.70;;;14.56;100.00;95100.44;4180701;34;19941;-81
2022/09/28 07:46:13;;;;;;;;;;;15.50;73.60;;;14.56;100.00;62537.16;4203635;34;19903;-81
2022/09/28 07:48:50;;;;;;;;;;;15.50;73.60;;;14.56;100.00;62537.16;4180306;34;19974;-81
2022/09/28 07:51:36;;;;;;;;;;;15.50;73.50;;;14.56;100.00;62537.16;4180754;34;19903;-82
2022/09/28 07:54:23;;;;;;;;;;;15.50;73.40;;;-151.14;100.00;62537.16;4203515;33;20115;-82
2022/09/28 07:57:10;;;;;;;;;;;15.60;73.30;;;-151.14;100.00;62537.16;4203672;34;19930;-81
2022/09/28 08:00:04;;;;;;;;;;;15.60;73.30;;;14.69;100.00;83140.44;4204281;33;20215;-82
2022/09/28 08:02:48;;;;;;;;;;;15.50;73.20;;;-151.14;100.00;62537.16;4180703;34;20146;-82
2022/09/28 08:05:24;;;;;;;;;;;15.50;73.20;;;-151.14;100.00;62537.16;4180437;34;20133;-81
2022/09/28 08:07:56;;;;;;;;;;;15.50;73.40;;;-151.14;100.00;62537.16;4180341;34;19903;-81
2022/09/28 08:10:25;;;;;;;;;;;15.50;73.50;;;18.08;100.00;62537.16;4184594;33;19903;-82
2022/09/28 08:13:13;;;;;;;;;;;15.50;73.50;;;14.66;100.00;83136.16;4231385;33;19903;-82
2022/09/28 08:15:53;;;;;;;;;;;15.50;73.50;;;-151.14;100.00;62537.16;4231278;33;20003;-82
2022/09/28 08:18:40;;;;;;;;;;;15.50;73.50;;;-151.14;100.00;62537.16;4230976;33;19902;-82
2022/09/28 08:23:56;;;;;;;;;;;15.40;73.70;;;14.38;100.00;83097.13;4231166;33;19910;-82
2022/09/28 08:26:25;;;;;;;;;;;15.30;73.90;;;14.32;100.00;83089.31;4231157;33;19903;-82
2022/09/28 08:28:54;;;;;;;;;;;15.30;74.20;;;-151.14;100.00;62537.16;4207588;33;19902;-82
2022/09/28 08:31:44;;;;;;;;;;;15.20;74.40;;;-151.14;100.00;62537.16;4207805;33;20221;-82
2022/09/28 08:34:42;;;;;;;;;;;15.20;74.70;;;14.15;100.00;83065.19;4207117;33;19942;-83
2022/09/28 08:37:24;;;;;;;;;;;15.10;74.90;;;-151.14;100.00;62537.16;4231189;33;19903;-82
2022/09/28 08:40:15;;;;;;;;;;;15.10;75.10;;;-151.14;100.00;62537.16;4231053;33;19907;-82
2022/09/28 08:42:57;;;;;;;;;;;15.00;75.20;;;-151.14;100.00;62537.16;4231122;33;19902;-82
2022/09/28 08:45:33;;;;;;;;;;;15.00;75.30;;;14.04;100.00;62537.16;4230812;33;20003;-82
2022/09/28 08:51:21;;;;;;;;;;;15.00;75.50;;;14.09;100.00;62537.16;4203106;34;19903;-82
2022/09/28 08:54:27;;;;;;;;;;;15.00;75.40;;;-151.14;100.00;62537.16;4202560;34;20138;-82
2022/09/28 08:57:01;;;;;;;;;;;15.00;75.30;;;14.16;100.00;62537.16;4202933;34;20312;-82
2022/09/28 08:59:41;;;;;;;;;;;15.10;75.30;;;14.17;100.00;62537.16;4179523;34;20003;-82
2022/09/28 09:02:15;;;;;;;;;;;15.10;75.30;;;14.19;100.00;62537.16;4179819;34;20001;-82
2022/09/28 09:04:44;;;;;;;;;;;15.10;75.10;;;14.21;100.00;62537.16;4202935;34;19903;-82
2022/09/28 09:07:47;;;;;;;;;;;15.10;75.10;;;-151.14;100.00;62537.16;4179702;34;20151;-83
2022/09/28 09:10:44;;;;;;;;;;;15.10;75.00;;;-151.14;100.00;62537.16;4179932;34;19910;-82
2022/09/28 09:13:38;;;;;;;;;;;15.20;75.00;;;14.22;100.00;62537.16;4180090;34;19910;-82
2022/09/28 09:16:13;;;;;;;;;;;15.20;75.00;;;14.22;100.00;62537.16;4179718;34;20004;-82
2022/09/28 09:19:14;;;;;;;;;;;15.10;75.00;;;-151.14;100.00;62537.16;4179279;34;19910;-83
2022/09/28 09:22:00;;;;;;;;;;;15.20;75.00;;;-151.14;100.00;62537.16;4202692;34;19906;-82
2022/09/28 09:24:34;;;;;;;;;;;15.10;75.00;;;-151.14;100.00;62537.16;4179684;34;20228;-83
2022/09/28 09:27:08;;;;;;;;;;;15.20;75.00;;;14.21;100.00;62537.16;4202604;34;19933;-83
2022/09/28 09:29:49;;;;;;;;;;;15.10;75.00;;;-151.14;100.00;62537.16;4179439;34;19910;-83
2022/09/28 09:32:32;;;;;;;;;;;15.20;75.10;;;-151.14;100.00;62537.16;4203108;34;19914;-83
2022/09/28 09:35:21;;;;;;;;;;;15.10;75.10;;;-151.14;100.00;62537.16;4182054;34;19903;-83
2022/09/28 09:38:28;;;;;;;;;;;15.10;75.10;;;-151.14;100.00;62537.16;4205563;34;19947;-83
2022/09/28 09:41:43;;;;;;;;;;;15.20;75.20;;;-151.14;100.00;62537.16;4176626;34;19904;-83
2022/09/28 09:44:43;;;;;;;;;;;15.10;75.20;;;-151.14;100.00;62537.16;4202356;33;19903;-83
2022/09/28 09:47:49;;;;;;;;;;;15.10;75.20;;;-151.14;100.00;62537.16;4192895;34;19903;-83
2022/09/28 09:50:29;;;;;;;;;;;15.10;75.20;;;-151.14;100.00;62537.16;4205063;34;19910;-83
2022/09/28 09:53:02;;;;;;;;;;;15.10;75.20;;;-151.14;100.00;62537.16;4181825;34;20303;-83
2022/09/28 09:55:34;;;;;;;;;;;15.10;75.30;;;-151.14;100.00;62537.16;4181854;34;20009;-83
2022/09/28 09:58:21;;;;;;;;;;;15.10;75.30;;;-151.14;100.00;62537.16;4181410;34;19903;-83
2022/09/28 10:01:04;;;;;;;;;;;15.10;75.40;;;14.77;100.00;62537.16;4228269;33;20008;-82
2022/09/28 10:03:53;;;;;;;;;;;15.10;75.50;;;-151.14;100.00;62537.16;4204730;34;19991;-83
2022/09/28 10:06:27;;;;;;;;;;;15.10;75.40;;;-151.14;100.00;62537.16;4181783;34;19966;-83
2022/09/28 10:09:01;;;;;;;;;;;15.10;75.50;;;-151.14;100.00;62537.16;4204435;34;19903;-83
2022/09/28 10:11:34;;;;;;;;;;;15.10;75.50;;;-151.14;100.00;62537.16;4181635;34;19909;-82
2022/09/28 10:14:04;;;;;;;;;;;15.10;75.50;;;-151.14;100.00;62537.16;4181607;34;19904;-83
2022/09/28 10:16:46;;;;;;;;;;;15.10;75.50;;;-151.14;100.00;62537.16;4181603;34;19991;-83
2022/09/28 10:19:29;;;;;;;;;;;15.10;75.50;;;-151.14;100.00;62537.16;4204282;34;19910;-83
2022/09/28 10:22:18;;;;;;;;;;;15.10;75.60;;;14.07;100.00;62537.16;4204630;34;20004;-83
2022/09/28 10:24:47;;;;;;;;;;;15.10;75.60;;;-151.14;100.00;62537.16;4181472;34;19903;-84
2022/09/28 10:27:17;;;;;;;;;;;15.00;75.50;;;-151.14;100.00;62537.16;4204589;33;19903;-83
2022/09/28 10:29:50;;;;;;;;;;;15.00;75.50;;;-151.14;100.00;62537.16;4181119;34;20003;-82
2022/09/28 10:32:23;;;;;;;;;;;15.00;75.60;;;-151.14;100.00;62537.16;4204539;33;20299;-82
2022/09/28 10:35:13;;;;;;;;;;;15.00;75.60;;;-151.14;100.00;62537.16;4181323;34;19903;-82
2022/09/28 10:37:51;;;;;;;;;;;15.00;75.70;;;14.03;100.00;62537.16;4229697;33;19911;-83
2022/09/28 10:40:42;;;;;;;;;;;15.00;75.70;;;-151.14;100.00;62537.16;4218385;33;19910;-82
2022/09/28 10:43:22;;;;;;;;;;;15.00;75.60;;;-151.14;100.00;62537.16;4232112;33;19910;-83
2022/09/28 10:46:00;;;;;;;;;;;14.90;75.80;;;-151.14;100.00;62537.16;4209103;33;20289;-82
2022/09/28 10:48:35;;;;;;;;;;;15.00;75.80;;;-151.14;100.00;62537.16;4208530;33;20233;-83
2022/09/28 10:51:07;;;;;;;;;;;14.90;75.90;;;-151.14;100.00;62537.16;4232546;33;19903;-83
2022/09/28 10:53:37;;;;;;;;;;;14.90;75.90;;;-151.14;100.00;62537.16;4208877;33;19902;-82
2022/09/28 10:56:21;;;;;;;;;;;14.90;75.90;;;-151.14;100.00;62537.16;4232306;33;19918;-83
2022/09/28 10:58:54;;;;;;;;;;;14.90;76.00;;;-151.14;100.00;62537.16;4208307;33;20014;-83
2022/09/28 11:01:32;;;;;;;;;;;14.90;76.80;;;-151.14;100.00;62537.16;4232261;33;20003;-83
2022/09/28 11:04:03;;;;;;;;;;;14.90;76.10;;;13.97;100.00;62537.16;4232078;33;19903;-83
2022/09/28 11:06:37;;;;;;;;;;;14.90;76.20;;;-151.14;100.00;62537.16;4208856;33;20037;-83
2022/09/28 11:09:09;;;;;;;;;;;14.90;76.10;;;-151.14;100.00;62537.16;4231468;33;19902;-83
2022/09/28 11:11:40;;;;;;;;;;;14.90;76.20;;;13.95;100.00;62537.16;4208843;33;20096;-83
2022/09/28 11:14:24;;;;;;;;;;;14.90;76.20;;;-151.14;100.00;62537.16;4231934;33;19983;-82
2022/09/28 11:17:18;;;;;;;;;;;14.90;76.20;;;-151.14;100.00;62537.16;4231912;33;19903;-83
2022/09/28 11:19:49;;;;;;;;;;;14.90;76.30;;;-151.14;100.00;62537.16;4231612;33;19902;-83
2022/09/28 11:22:23;;;;;;;;;;;14.90;76.30;;;13.88;100.00;62537.16;4232776;33;19903;-83
2022/09/28 11:25:12;;;;;;;;;;;14.90;76.30;;;-151.14;100.00;62537.16;4208697;33;19906;-83
2022/09/28 11:27:41;;;;;;;;;;;14.80;76.30;;;-151.14;100.00;62537.16;4208212;33;19918;-82
2022/09/28 11:30:22;;;;;;;;;;;14.80;76.40;;;-151.14;100.00;62537.16;4231905;33;19995;-82
2022/09/28 11:33:18;;;;;;;;;;;14.80;76.50;;;-151.14;100.00;62537.16;4231084;33;19995;-82
2022/09/28 11:36:30;;;;;;;;;;;14.80;76.60;;;-151.14;100.00;62537.16;4231497;33;19984;-83
2022/09/28 11:39:05;;;;;;;;;;;14.70;76.60;;;-151.14;100.00;62537.16;4231266;33;19925;-83
2022/09/28 11:42:07;;;;;;;;;;;14.70;76.70;;;-151.14;100.00;62537.16;4232828;33;20029;-83
2022/09/28 11:44:43;;;;;;;;;;;14.70;76.80;;;-151.14;100.00;62537.16;4208358;33;19987;-83